Time;durP1;ratioP1;P1;durP2;ratioP2;P2;SDS_P1;SDS_P2;PMS_P1;PMS_P2;Temp;Humidity;BMP_temperature;BMP_pressure;BME280_temperature;BME280_humidity;BME280_pressure;Samples;Min_cycle;Max_cycle;Signal;HPM_P1;HPM_P2
2021/05/13 00:01:13;;;;;;;7.50;5.80;;;;;;;10.97;81.66;100257.48;1587766;90;21254;-57
2021/05/13 00:04:19;;;;;;;10.18;5.33;;;;;;;10.96;81.58;100259.88;1593386;89;21323;-57
2021/05/13 00:07:26;;;;;;;9.20;5.97;;;;;;;10.96;81.55;100260.38;1593668;89;21268;-57
2021/05/13 00:10:32;;;;;;;9.13;6.55;;;;;;;10.94;81.40;100256.45;1570360;91;21204;-58
2021/05/13 00:13:40;;;;;;;7.78;6.55;;;;;;;10.93;81.41;100253.90;1593043;89;21489;-58
2021/05/13 00:16:48;;;;;;;12.53;7.42;;;;;;;10.92;81.41;100250.84;1569992;91;21283;-58
2021/05/13 00:19:58;;;;;;;9.48;7.15;;;;;;;10.90;81.53;100259.73;1593020;89;21382;-58
2021/05/13 00:23:03;;;;;;;8.23;7.20;;;;;;;10.92;81.58;100257.17;1571303;90;21290;-57
2021/05/13 00:26:10;;;;;;;9.50;6.78;;;;;;;10.92;81.64;100268.13;1593212;89;21362;-58
2021/05/13 00:29:26;;;;;;;9.43;7.28;;;;;;;10.92;81.73;100253.58;1569739;91;21290;-57
2021/05/13 00:32:25;;;;;;;9.25;7.65;;;;;;;10.94;81.82;100250.14;1593798;89;21437;-57
2021/05/13 00:35:31;;;;;;;8.60;7.65;;;;;;;10.94;81.92;100248.23;1569477;91;21224;-56
2021/05/13 00:38:36;;;;;;;9.45;7.90;;;;;;;10.96;81.92;100249.42;1602425;84;21239;-56
2021/05/13 00:41:41;;;;;;;9.50;7.97;;;;;;;10.96;81.93;100254.91;1604571;89;21358;-56
2021/05/13 00:44:51;;;;;;;9.18;7.60;;;;;;;10.98;81.89;100251.47;1577493;90;21419;-56
2021/05/13 00:51:05;;;;;;;13.75;8.15;;;;;;;10.97;81.94;100250.64;1578739;90;21385;-56
2021/05/13 00:54:11;;;;;;;10.45;7.65;;;;;;;10.99;82.00;100253.20;1578791;90;21254;-56
2021/05/13 00:57:18;;;;;;;10.48;8.10;;;;;;;10.98;81.95;100252.33;1578926;90;21376;-56
2021/05/13 01:03:45;;;;;;;8.65;7.30;;;;;;;10.99;81.86;100249.92;1578760;90;21937;-56
2021/05/13 01:06:55;;;;;;;9.10;8.15;;;;;;;10.98;81.80;100258.32;1578965;90;21226;-58
2021/05/13 01:09:59;;;;;;;9.80;7.65;;;;;;;10.98;81.80;100258.32;1578838;90;21782;-58
2021/05/13 01:13:09;;;;;;;10.40;7.53;;;;;;;10.98;81.78;100256.45;1579610;90;21393;-55
2021/05/13 01:16:24;;;;;;;9.30;8.00;;;;;;;10.99;81.84;100256.77;1578788;90;21267;-56
2021/05/13 01:19:21;;;;;;;10.63;8.05;;;;;;;10.98;81.79;100254.21;1578638;90;21380;-57
2021/05/13 01:22:29;;;;;;;10.58;8.25;;;;;;;10.99;81.90;100250.46;1578759;90;21265;-55
2021/05/13 01:25:34;;;;;;;10.85;8.90;;;;;;;11.02;82.05;100252.30;1578696;90;21367;-55
2021/05/13 01:28:39;;;;;;;11.95;8.08;;;;;;;11.03;82.01;100251.28;1579213;90;21400;-56
2021/05/13 01:31:46;;;;;;;11.35;8.85;;;;;;;11.04;81.85;100254.84;1578662;90;21206;-56
2021/05/13 01:34:52;;;;;;;9.90;8.45;;;;;;;11.01;81.77;100262.06;1578574;90;21562;-57
2021/05/13 01:38:15;;;;;;;10.15;8.40;;;;;;;10.97;81.67;100260.23;1578589;90;21270;-55
2021/05/13 01:41:20;;;;;;;10.95;7.95;;;;;;;10.93;81.62;100274.44;1557017;92;21283;-56
2021/05/13 01:44:25;;;;;;;11.43;8.95;;;;;;;10.87;81.61;100261.47;1556206;92;21804;-57
2021/05/13 01:47:32;;;;;;;10.58;8.35;;;;;;;10.82;81.68;100269.38;1556225;92;21301;-56
2021/05/13 01:50:40;;;;;;;11.68;9.33;;;;;;;10.77;81.65;100273.16;1556127;92;21321;-57
2021/05/13 01:53:52;;;;;;;10.35;8.15;;;;;;;10.70;81.66;100279.04;1556137;92;21302;-56
2021/05/13 01:56:58;;;;;;;10.48;8.80;;;;;;;10.65;81.72;100277.34;1555722;92;21335;-57
2021/05/13 02:00:03;;;;;;;11.10;8.75;;;;;;;10.63;81.93;100283.50;1556309;92;21270;-57
2021/05/13 02:03:10;;;;;;;10.75;9.20;;;;;;;10.62;82.05;100282.67;1556183;92;21267;-57
2021/05/13 02:06:15;;;;;;;10.40;8.40;;;;;;;10.58;82.00;100284.91;1556261;92;21301;-56
2021/05/13 02:09:21;;;;;;;11.15;9.18;;;;;;;10.55;82.01;100281.67;1556077;92;21302;-57
2021/05/13 02:12:26;;;;;;;11.03;9.28;;;;;;;10.49;81.97;100285.13;1556126;92;21286;-56
2021/05/13 02:15:33;;;;;;;13.48;9.30;;;;;;;10.46;82.09;100280.01;1556075;92;21271;-57
2021/05/13 02:18:39;;;;;;;11.83;8.83;;;;;;;10.46;82.16;100283.58;1555905;92;21319;-57
2021/05/13 02:21:44;;;;;;;10.63;8.60;;;;;;;10.47;82.28;100283.08;1556206;92;21263;-57
2021/05/13 02:24:49;;;;;;;9.85;7.55;;;;;;;10.46;82.25;100282.75;1556129;92;21251;-57
2021/05/13 02:27:54;;;;;;;11.35;9.00;;;;;;;10.46;82.29;100283.58;1556032;92;21306;-57
2021/05/13 02:31:00;;;;;;;10.78;8.45;;;;;;;10.46;82.29;100284.95;1555480;92;21282;-57
2021/05/13 02:34:06;;;;;;;10.70;8.60;;;;;;;10.43;82.35;100271.63;1556141;92;21298;-58
2021/05/13 02:37:11;;;;;;;10.38;9.03;;;;;;;10.43;82.54;100268.88;1556148;92;21344;-56
2021/05/13 02:40:17;;;;;;;10.75;8.73;;;;;;;10.43;82.47;100269.42;1564111;85;21344;-56
2021/05/13 02:43:23;;;;;;;10.93;8.90;;;;;;;10.38;82.32;100278.17;1590194;90;21446;-56
2021/05/13 02:46:27;;;;;;;10.35;8.18;;;;;;;10.33;82.22;100275.10;1589013;90;21378;-57
2021/05/13 02:49:32;;;;;;;10.32;8.53;;;;;;;10.31;82.28;100277.66;1590044;90;21923;-57
2021/05/13 02:52:37;;;;;;;14.05;8.90;;;;;;;10.31;82.27;100274.92;1589910;90;21401;-57
2021/05/13 02:55:42;;;;;;;12.75;9.10;;;;;;;10.31;82.19;100278.52;1590185;90;21275;-57
2021/05/13 02:58:50;;;;;;;10.13;8.23;;;;;;;10.30;82.08;100272.73;1590019;90;21407;-57
2021/05/13 03:01:55;;;;;;;11.88;8.53;;;;;;;10.30;82.11;100269.12;1589295;90;21251;-57
2021/05/13 03:05:01;;;;;;;12.20;8.75;;;;;;;10.30;82.11;100272.73;1590241;90;21631;-56
2021/05/13 03:08:10;;;;;;;10.55;8.80;;;;;;;10.32;82.08;100273.38;1590267;90;21308;-57
2021/05/13 03:11:17;;;;;;;9.90;8.08;;;;;;;10.33;82.17;100268.77;1590123;90;21971;-58
2021/05/13 03:14:24;;;;;;;11.50;8.30;;;;;;;10.36;82.29;100266.53;1589885;90;21394;-57
2021/05/13 03:17:32;;;;;;;10.13;7.78;;;;;;;10.39;82.25;100268.91;1590344;90;21675;-56
2021/05/13 03:20:43;;;;;;;10.68;7.85;;;;;;;10.45;82.26;100269.56;1572831;91;21267;-57
2021/05/13 03:27:14;;;;;;;10.43;8.45;;;;;;;10.57;82.16;100285.09;1590249;90;21240;-57
2021/05/13 03:30:24;;;;;;;10.18;7.95;;;;;;;10.70;82.27;100292.73;1575717;89;21796;-57
2021/05/13 03:33:28;;;;;;;11.60;8.18;;;;;;;10.92;82.33;100305.10;1595948;90;21764;-57
2021/05/13 03:36:34;;;;;;;12.15;7.78;;;;;;;11.14;82.09;100310.27;1594401;89;21384;-57
2021/05/13 03:39:41;;;;;;;7.67;6.70;;;;;;;11.32;81.83;100306.73;1576111;91;21327;-57
2021/05/13 03:42:46;;;;;;;8.83;6.75;;;;;;;11.46;81.43;100316.89;1618407;84;21281;-56
2021/05/13 03:45:52;;;;;;;7.78;6.97;;;;;;;11.49;80.73;100325.61;1618046;88;21264;-56
2021/05/13 03:49:00;;;;;;;10.35;6.92;;;;;;;11.44;80.18;100325.81;1623344;88;21381;-56
2021/05/13 03:52:05;;;;;;;7.97;6.67;;;;;;;11.39;79.96;100325.50;1596121;90;21267;-58
2021/05/13 03:55:13;;;;;;;8.45;7.08;;;;;;;11.39;79.91;100326.87;1609234;89;21253;-57
2021/05/13 03:58:19;;;;;;;9.03;6.70;;;;;;;11.44;79.92;100329.92;1623301;88;21977;-57
2021/05/13 04:04:41;;;;;;;6.33;5.03;;;;;;;11.69;79.84;100341.06;1623715;88;21376;-57
2021/05/13 04:07:50;;;;;;;7.03;5.00;;;;;;;11.77;79.32;100336.88;1609287;89;21870;-59
2021/05/13 04:10:58;;;;;;;6.90;5.37;;;;;;;11.85;79.02;100350.02;1622609;88;21370;-56
2021/05/13 04:14:04;;;;;;;5.85;4.72;;;;;;;11.93;78.72;100354.56;1596262;90;21258;-56
2021/05/13 04:17:13;;;;;;;8.05;5.53;;;;;;;11.95;77.92;100351.12;1609215;89;21230;-58
2021/05/13 04:20:21;;;;;;;5.75;5.10;;;;;;;11.94;77.64;100346.15;1623031;88;21909;-57
2021/05/13 04:23:28;;;;;;;6.20;5.47;;;;;;;12.01;77.59;100346.27;1596317;90;21254;-57
2021/05/13 04:26:34;;;;;;;6.53;4.97;;;;;;;12.14;77.64;100348.37;1608879;89;21242;-58
2021/05/13 04:29:40;;;;;;;5.72;4.08;;;;;;;12.23;77.51;100348.09;1622569;88;21887;-58
2021/05/13 04:32:46;;;;;;;4.97;3.92;;;;;;;12.25;76.47;100353.40;1622454;88;21385;-57
2021/05/13 04:35:55;;;;;;;5.53;3.33;;;;;;;12.28;76.03;100353.88;1622135;88;21258;-57
2021/05/13 04:39:00;;;;;;;5.03;4.50;;;;;;;12.38;75.35;100357.22;1622078;88;21291;-57
2021/05/13 04:42:08;;;;;;;6.03;3.92;;;;;;;12.48;74.79;100358.31;1622147;84;21211;-57
2021/05/13 04:45:13;;;;;;;6.10;4.55;;;;;;;12.58;74.47;100358.35;1582725;90;21229;-57
2021/05/13 04:48:21;;;;;;;4.37;3.10;;;;;;;12.75;74.83;100361.23;1615917;88;21775;-57
2021/05/13 04:51:31;;;;;;;3.40;2.62;;;;;;;12.86;74.44;100360.75;1615812;88;21647;-54
2021/05/13 04:54:36;;;;;;;3.87;3.20;;;;;;;12.84;73.12;100368.35;1618278;87;21753;-55
2021/05/13 04:57:43;;;;;;;4.47;3.47;;;;;;;12.86;72.86;100370.36;1615133;88;21262;-54
2021/05/13 05:00:49;;;;;;;3.65;3.25;;;;;;;12.93;72.47;100369.94;1616410;88;21221;-54
2021/05/13 05:03:56;;;;;;;4.30;3.33;;;;;;;13.02;72.33;100363.32;1615719;88;21842;-59
2021/05/13 05:07:02;;;;;;;4.90;3.30;;;;;;;13.09;71.70;100365.64;1615001;88;21365;-59
2021/05/13 05:10:07;;;;;;;3.10;2.47;;;;;;;13.14;71.36;100374.69;1583381;90;21604;-58
2021/05/13 05:13:13;;;;;;;4.50;2.85;;;;;;;13.21;70.55;100381.95;1583805;90;21252;-55
2021/05/13 05:16:19;;;;;;;7.60;5.15;;;;;;;13.19;69.56;100381.83;1589383;90;21267;-58
2021/05/13 05:19:32;;;;;;;4.03;3.42;;;;;;;13.19;69.55;100380.46;1589863;90;21751;-58
2021/05/13 05:22:39;;;;;;;4.40;3.50;;;;;;;13.25;69.32;100380.55;1615455;87;21265;-58
2021/05/13 05:25:45;;;;;;;4.62;3.10;;;;;;;13.31;69.24;100389.39;1617019;88;21299;-57
2021/05/13 05:28:51;;;;;;;4.08;3.22;;;;;;;13.31;68.75;100388.52;1589572;90;21264;-56
2021/05/13 05:31:57;;;;;;;4.78;3.85;;;;;;;13.37;68.74;100383.11;1616239;89;21651;-58
2021/05/13 05:35:04;;;;;;;4.17;3.50;;;;;;;13.46;68.71;100397.06;1606433;89;21293;-58
2021/05/13 05:38:10;;;;;;;4.97;4.08;;;;;;;13.50;68.43;100392.03;1599318;89;21308;-58
2021/05/13 05:41:16;;;;;;;5.25;4.25;;;;;;;13.53;68.39;100390.27;1599635;89;21592;-58
2021/05/13 05:44:21;;;;;;;5.25;4.05;;;;;;;13.58;68.38;100394.66;1598193;87;21817;-58
2021/05/13 05:47:26;;;;;;;4.22;3.30;;;;;;;13.66;68.81;100397.80;1619573;88;21272;-59
2021/05/13 05:50:31;;;;;;;4.45;3.60;;;;;;;13.73;68.78;100394.61;1623574;88;21740;-55
2021/05/13 05:53:38;;;;;;;5.47;4.53;;;;;;;13.89;69.20;100395.73;1612468;89;21293;-55
2021/05/13 05:56:43;;;;;;;6.97;4.75;;;;;;;14.07;68.24;100402.98;1624944;88;21239;-57
2021/05/13 05:59:49;;;;;;;5.60;4.90;;;;;;;14.19;68.12;100412.43;1612653;88;21257;-56
2021/05/13 06:02:58;;;;;;;6.87;5.78;;;;;;;14.38;67.87;100405.72;1624485;88;21313;-56
2021/05/13 06:06:05;;;;;;;5.67;4.83;;;;;;;14.47;67.18;100409.19;1624910;88;21778;-56
2021/05/13 06:09:10;;;;;;;6.03;4.42;;;;;;;14.55;66.57;100407.66;1611356;89;21245;-56
2021/05/13 06:12:16;;;;;;;5.80;4.28;;;;;;;14.66;66.07;100409.87;1623595;88;21242;-56
2021/05/13 06:15:25;;;;;;;5.40;4.03;;;;;;;14.65;65.40;100407.63;1620826;88;21251;-56
2021/05/13 06:18:33;;;;;;;4.60;3.70;;;;;;;14.64;65.11;100407.31;1624156;88;21767;-56
2021/05/13 06:21:46;;;;;;;5.67;4.08;;;;;;;14.65;65.49;100406.80;1623160;88;21215;-56
2021/05/13 06:24:49;;;;;;;6.95;4.00;;;;;;;14.61;64.90;100404.10;1624086;88;21324;-56
2021/05/13 06:28:01;;;;;;;6.53;3.52;;;;;;;14.51;65.12;100411.34;1624323;88;21824;-56
2021/05/13 06:31:02;;;;;;;4.90;3.65;;;;;;;14.56;65.23;100416.24;1628979;87;21312;-56
2021/05/13 06:34:10;;;;;;;4.62;3.70;;;;;;;14.59;64.53;100418.59;1604023;89;21300;-56
2021/05/13 06:37:15;;;;;;;4.03;3.40;;;;;;;14.63;64.73;100419.91;1624601;88;21243;-55
2021/05/13 06:40:20;;;;;;;5.80;4.53;;;;;;;14.66;64.90;100416.23;1625301;88;21242;-54
2021/05/13 06:43:25;;;;;;;5.58;4.17;;;;;;;14.76;64.54;100418.63;1625075;88;21254;-56
2021/05/13 06:46:34;;;;;;;7.08;4.33;;;;;;;14.82;63.92;100416.44;1641792;86;21223;-56
2021/05/13 06:49:43;;;;;;;5.00;4.17;;;;;;;14.87;63.97;100413.94;1645875;86;21895;-55
2021/05/13 06:52:49;;;;;;;7.47;5.17;;;;;;;14.98;64.06;100412.81;1628210;87;21306;-54
2021/05/13 06:55:55;;;;;;;4.50;3.95;;;;;;;15.07;63.75;100409.89;1628684;88;21756;-54
2021/05/13 06:59:07;;;;;;;6.40;4.83;;;;;;;15.11;63.55;100411.20;1627413;87;21240;-54
2021/05/13 07:02:21;;;;;;;4.90;4.10;;;;;;;15.11;63.28;100409.83;1629705;86;21433;-54
2021/05/13 07:05:27;;;;;;;4.70;4.17;;;;;;;15.00;62.19;100403.83;1642516;87;21214;-53
2021/05/13 07:08:33;;;;;;;5.22;4.33;;;;;;;14.94;62.23;100403.78;1643038;87;21300;-54
2021/05/13 07:11:42;;;;;;;5.35;4.10;;;;;;;14.86;62.31;100400.67;1643244;87;21229;-54
2021/05/13 07:14:49;;;;;;;8.25;3.70;;;;;;;14.77;62.32;100409.30;1642688;87;21318;-54
2021/05/13 07:17:58;;;;;;;4.50;4.10;;;;;;;14.65;62.23;100420.03;1643185;87;21613;-54
2021/05/13 07:21:05;;;;;;;5.30;4.40;;;;;;;14.60;62.04;100424.45;1624104;88;21320;-54
2021/05/13 07:24:12;;;;;;;5.20;3.95;;;;;;;14.57;62.64;100411.08;1626980;86;21603;-53
2021/05/13 07:27:23;;;;;;;11.12;4.65;;;;;;;14.57;62.75;100413.84;1627977;87;21963;-50
2021/05/13 07:30:29;;;;;;;6.15;4.62;;;;;;;14.59;62.98;100411.70;1615786;88;21207;-50
2021/05/13 07:33:36;;;;;;;5.65;4.55;;;;;;;14.63;62.46;100416.64;1628130;87;22011;-51
2021/05/13 07:36:41;;;;;;;6.72;4.72;;;;;;;14.68;62.21;100410.52;1627601;88;21244;-49
2021/05/13 07:39:47;;;;;;;6.33;4.83;;;;;;;14.68;62.67;100406.39;1628138;88;21409;-50
2021/05/13 07:42:53;;;;;;;5.37;4.70;;;;;;;14.60;62.59;100413.43;1595493;88;21622;-50
2021/05/13 07:46:01;;;;;;;5.65;4.62;;;;;;;14.53;62.75;100407.01;1610522;86;21259;-50
2021/05/13 07:49:07;;;;;;;8.10;6.37;;;;;;;14.49;62.86;100408.48;1624215;88;21297;-50
2021/05/13 07:52:17;;;;;;;4.75;4.22;;;;;;;14.52;62.87;100413.06;1624938;88;21779;-51
2021/05/13 07:55:24;;;;;;;5.22;4.28;;;;;;;14.72;62.46;100406.30;1624400;88;22115;-52
2021/05/13 07:58:30;;;;;;;4.42;3.95;;;;;;;14.87;62.52;100396.84;1612194;89;21246;-50
2021/05/13 08:01:35;;;;;;;5.25;4.00;;;;;;;15.00;62.66;100400.20;1625338;88;21231;-51
2021/05/13 08:04:41;;;;;;;4.00;3.37;;;;;;;15.12;62.54;100414.27;1625370;88;21712;-52
2021/05/13 08:07:46;;;;;;;6.22;3.45;;;;;;;15.15;62.02;100402.31;1625365;88;21333;-53
2021/05/13 08:10:52;;;;;;;7.85;4.78;;;;;;;15.16;62.09;100408.14;1625415;88;21234;-52
2021/05/13 08:14:00;;;;;;;5.00;4.05;;;;;;;15.29;61.95;100413.72;1625227;88;21349;-53
2021/05/13 08:17:09;;;;;;;4.72;4.22;;;;;;;15.44;61.83;100406.72;1625396;88;21294;-52
2021/05/13 08:20:18;;;;;;;5.75;4.10;;;;;;;15.68;62.11;100408.92;1613594;88;21864;-53
2021/05/13 08:23:24;;;;;;;5.40;4.90;;;;;;;15.84;60.44;100410.75;1625734;88;21262;-49
2021/05/13 08:26:31;;;;;;;5.75;4.30;;;;;;;15.95;60.48;100410.69;1598751;89;21234;-52
2021/05/13 08:29:38;;;;;;;4.37;3.77;;;;;;;16.00;59.23;100413.13;1611297;89;21321;-50
2021/05/13 08:32:45;;;;;;;6.72;4.33;;;;;;;16.08;59.66;100420.34;1617908;88;21821;-50
2021/05/13 08:35:52;;;;;;;7.45;4.40;;;;;;;16.30;60.12;100423.23;1619798;88;21815;-51
2021/05/13 08:39:01;;;;;;;6.12;3.55;;;;;;;16.53;59.36;100425.62;1623950;88;21243;-52
2021/05/13 08:42:07;;;;;;;5.05;3.70;;;;;;;16.75;58.28;100425.70;1624500;88;21807;-51
2021/05/13 08:45:12;;;;;;;5.28;4.15;;;;;;;16.83;57.22;100411.66;1608534;89;21803;-51
2021/05/13 08:48:19;;;;;;;5.08;4.12;;;;;;;16.92;56.62;100421.45;1627295;83;21274;-51
2021/05/13 08:51:25;;;;;;;5.08;3.65;;;;;;;16.87;57.01;100417.09;1618248;87;21395;-52
2021/05/13 08:54:32;;;;;;;5.50;4.85;;;;;;;16.94;58.04;100428.45;1598522;89;21262;-53
2021/05/13 08:57:37;;;;;;;4.67;4.17;;;;;;;17.04;57.59;100430.77;1636052;87;21250;-50
2021/05/13 09:00:43;;;;;;;9.00;5.85;;;;;;;17.18;57.70;100434.67;1625126;87;21776;-49
2021/05/13 09:03:58;;;;;;;5.45;3.92;;;;;;;17.38;56.29;100431.30;1609051;87;21259;-51
2021/05/13 09:07:08;;;;;;;6.37;3.70;;;;;;;17.57;55.21;100433.69;1616426;88;21812;-52
2021/05/13 09:10:18;;;;;;;5.95;3.25;;;;;;;17.77;53.80;100422.00;1608888;88;21285;-53
2021/05/13 09:13:36;;;;;;;5.45;4.28;;;;;;;17.85;53.02;100430.88;1633233;88;21295;-52
2021/05/13 09:16:44;;;;;;;6.15;3.70;;;;;;;17.94;52.48;100431.48;1621698;88;21234;-52
2021/05/13 09:19:52;;;;;;;5.10;3.85;;;;;;;18.10;52.93;100432.88;1635203;87;21225;-53
2021/05/13 09:22:59;;;;;;;4.25;3.47;;;;;;;18.33;52.19;100420.12;1622716;88;21248;-54
2021/05/13 09:26:22;;;;;;;4.72;3.62;;;;;;;18.57;52.21;100415.16;1622551;87;21306;-54
2021/05/13 09:29:27;;;;;;;7.12;4.20;;;;;;;18.70;51.38;100427.53;1622814;88;21229;-52
2021/05/13 09:32:32;;;;;;;4.70;3.80;;;;;;;18.56;50.83;100430.11;1631792;87;21304;-53
2021/05/13 09:35:42;;;;;;;7.40;4.17;;;;;;;18.40;51.25;100426.51;1622543;88;21268;-53
2021/05/13 09:38:47;;;;;;;5.50;3.90;;;;;;;18.37;52.07;100433.86;1623209;88;21267;-52
2021/05/13 09:41:52;;;;;;;4.92;3.83;;;;;;;18.47;51.60;100439.76;1634465;88;21757;-53
2021/05/13 09:44:58;;;;;;;5.05;3.77;;;;;;;18.63;50.94;100437.81;1634429;87;21224;-53
2021/05/13 09:48:02;;;;;;;4.37;3.60;;;;;;;18.77;52.35;100431.10;1623870;86;21666;-53
2021/05/13 09:51:31;;;;;;;6.55;4.00;;;;;;;19.03;51.51;100430.82;1598722;89;21562;-53
2021/05/13 09:54:37;;;;;;;4.75;3.95;;;;;;;19.16;50.57;100436.23;1639171;87;21234;-53
2021/05/13 09:57:44;;;;;;;6.40;4.25;;;;;;;19.06;48.87;100431.75;1597990;89;21644;-53
2021/05/13 10:00:53;;;;;;;5.78;4.45;;;;;;;18.94;49.38;100429.43;1587610;90;21235;-53
2021/05/13 10:03:58;;;;;;;7.40;4.30;;;;;;;18.97;50.55;100433.13;1588221;90;21862;-56
2021/05/13 10:07:04;;;;;;;4.90;3.67;;;;;;;18.97;50.47;100426.20;1600906;88;21232;-56
2021/05/13 10:10:09;;;;;;;7.40;4.53;;;;;;;19.00;50.92;100434.06;1617808;88;21295;-56
2021/05/13 10:13:21;;;;;;;4.22;3.47;;;;;;;18.98;50.38;100425.67;1585806;90;21800;-55
2021/05/13 10:16:27;;;;;;;4.40;3.40;;;;;;;19.05;50.77;100430.06;1618255;88;21228;-54
2021/05/13 10:19:44;;;;;;;5.72;3.85;;;;;;;19.13;50.45;100433.92;1585377;90;21224;-55
2021/05/13 10:22:54;;;;;;;4.40;3.52;;;;;;;19.12;50.09;100432.20;1632708;87;21270;-58
2021/05/13 10:25:59;;;;;;;5.30;4.22;;;;;;;19.02;50.52;100426.89;1640149;86;21322;-55
2021/05/13 10:29:07;;;;;;;6.50;4.15;;;;;;;18.96;50.86;100423.66;1595573;89;21317;-56
2021/05/13 10:32:23;;;;;;;6.53;3.12;;;;;;;18.97;51.55;100421.17;1604740;88;21243;-55
2021/05/13 10:35:31;;;;;;;6.50;4.50;;;;;;;19.02;50.77;100419.95;1584628;90;21388;-53
2021/05/13 10:39:00;;;;;;;10.75;3.33;;;;;;;19.09;49.68;100435.45;1627618;87;21797;-55
2021/05/13 10:42:06;;;;;;;6.20;3.70;;;;;;;19.20;49.71;100429.13;1598865;89;21241;-56
2021/05/13 10:45:44;;;;;;;4.03;3.22;;;;;;;19.44;50.47;100440.45;1640707;87;21243;-54
2021/05/13 10:48:54;;;;;;;6.70;3.50;;;;;;;19.55;50.36;100423.83;1639989;87;21796;-57
2021/05/13 10:52:05;;;;;;;4.17;3.50;;;;;;;19.75;50.40;100418.03;1619480;88;21221;-55
2021/05/13 10:55:14;;;;;;;2.95;2.50;;;;;;;19.79;49.48;100415.93;1595483;87;21232;-56
2021/05/13 10:58:19;;;;;;;3.15;2.77;;;;;;;19.89;48.83;100405.64;1617111;88;21286;-56
2021/05/13 11:01:33;;;;;;;4.78;3.35;;;;;;;19.94;47.35;100399.70;1622789;87;21375;-56
2021/05/13 11:04:42;;;;;;;4.12;2.98;;;;;;;20.00;47.67;100402.92;1618856;87;21220;-56
2021/05/13 11:07:47;;;;;;;3.17;2.87;;;;;;;20.08;47.84;100396.16;1618532;88;21212;-56
2021/05/13 11:11:08;;;;;;;3.15;2.47;;;;;;;19.98;47.23;100400.08;1617405;88;21640;-57
2021/05/13 11:14:17;;;;;;;4.90;3.00;;;;;;;20.06;46.97;100390.02;1602142;88;21417;-55
2021/05/13 11:17:22;;;;;;;3.80;3.17;;;;;;;20.18;46.26;100386.22;1622167;88;21461;-56
2021/05/13 11:20:56;;;;;;;4.12;2.98;;;;;;;20.33;46.67;100392.69;1598233;90;21278;-55
2021/05/13 11:24:02;;;;;;;4.42;2.85;;;;;;;20.39;45.88;100387.02;1623413;88;21478;-56
2021/05/13 11:27:09;;;;;;;4.00;2.67;;;;;;;20.51;46.24;100389.30;1597944;88;21599;-55
2021/05/13 11:30:19;;;;;;;4.90;3.05;;;;;;;20.63;46.48;100388.75;1623338;86;21319;-48
2021/05/13 11:33:23;;;;;;;3.30;2.77;;;;;;;20.82;45.75;100388.08;1617826;88;21263;-49
2021/05/13 11:36:38;;;;;;;6.58;3.25;;;;;;;20.94;44.20;100388.94;1616971;87;21263;-50
2021/05/13 11:39:44;;;;;;;4.72;2.90;;;;;;;21.03;43.94;100382.47;1614548;87;21247;-49
2021/05/13 11:42:50;;;;;;;3.75;2.62;;;;;;;21.16;44.40;100392.83;1620484;87;21757;-50
2021/05/13 11:45:55;;;;;;;5.92;2.50;;;;;;;21.28;43.92;100392.81;1630090;87;21559;-51
2021/05/13 11:49:04;;;;;;;4.62;2.75;;;;;;;21.37;43.58;100389.94;1616525;87;21519;-49
2021/05/13 11:52:13;;;;;;;6.08;2.58;;;;;;;21.49;43.24;100376.28;1635582;86;21749;-49
2021/05/13 11:55:40;;;;;;;2.90;2.30;;;;;;;21.59;42.61;100389.57;1623764;88;21205;-49
2021/05/13 11:58:58;;;;;;;2.90;2.45;;;;;;;21.62;41.20;100377.93;1634265;87;22083;-49
2021/05/13 12:02:05;;;;;;;4.97;2.45;;;;;;;21.57;41.49;100381.47;1639408;86;21279;-49
2021/05/13 12:05:14;;;;;;;5.95;2.67;;;;;;;21.40;41.82;100386.66;1624091;88;21268;-49
2021/05/13 12:08:22;;;;;;;2.55;2.20;;;;;;;21.25;42.05;100382.17;1619061;88;21259;-49
2021/05/13 12:11:35;;;;;;;2.85;2.22;;;;;;;21.18;42.33;100379.52;1625147;87;21279;-48
2021/05/13 12:14:41;;;;;;;3.15;2.12;;;;;;;21.14;41.83;100370.48;1623487;88;21279;-49
2021/05/13 12:17:46;;;;;;;2.50;2.00;;;;;;;21.28;42.11;100374.71;1623643;87;21291;-50
2021/05/13 12:20:53;;;;;;;2.62;2.08;;;;;;;21.50;40.75;100375.17;1625163;87;21267;-51
2021/05/13 12:23:59;;;;;;;3.35;2.50;;;;;;;21.51;40.92;100378.81;1624677;88;21267;-50
2021/05/13 12:27:09;;;;;;;2.77;2.20;;;;;;;21.64;41.38;100372.42;1637458;87;21262;-49
2021/05/13 12:30:20;;;;;;;3.05;2.02;;;;;;;21.79;42.03;100377.47;1622961;87;21239;-49
2021/05/13 12:33:35;;;;;;;2.00;1.70;;;;;;;22.01;40.92;100369.55;1626652;87;21693;-50
2021/05/13 12:36:43;;;;;;;3.95;1.90;;;;;;;22.24;39.72;100367.18;1636117;86;21584;-49
2021/05/13 12:39:48;;;;;;;4.22;1.67;;;;;;;22.41;40.37;100362.98;1624475;88;21748;-50
2021/05/13 12:42:54;;;;;;;2.72;1.65;;;;;;;22.38;38.79;100369.08;1638128;87;21774;-50
2021/05/13 12:45:59;;;;;;;4.12;1.70;;;;;;;22.40;39.29;100367.75;1625129;87;21236;-50
2021/05/13 12:49:04;;;;;;;3.98;2.00;;;;;;;22.67;38.32;100374.91;1624040;87;21240;-50
2021/05/13 12:52:15;;;;;;;2.45;1.70;;;;;;;22.80;37.77;100371.20;1624627;84;21873;-50
2021/05/13 12:55:25;;;;;;;3.47;1.80;;;;;;;22.74;37.88;100369.44;1619230;88;21865;-51
2021/05/13 12:58:35;;;;;;;3.12;1.80;;;;;;;22.80;38.36;100365.63;1640441;86;21753;-49
2021/05/13 13:01:45;;;;;;;2.83;1.85;;;;;;;22.89;38.08;100359.92;1635018;87;21309;-50
2021/05/13 13:04:57;;;;;;;2.98;2.00;;;;;;;22.87;38.17;100354.28;1624073;86;21845;-50
2021/05/13 13:08:01;;;;;;;3.22;1.82;;;;;;;22.88;37.94;100354.59;1626519;86;21406;-51
2021/05/13 13:11:07;;;;;;;3.17;2.15;;;;;;;22.96;38.55;100345.20;1593106;90;21299;-50
2021/05/13 13:14:14;;;;;;;2.80;2.02;;;;;;;22.92;38.66;100339.86;1626203;88;21406;-50
2021/05/13 13:17:36;;;;;;;4.22;2.30;;;;;;;22.86;38.28;100348.41;1626527;88;21413;-50
2021/05/13 13:20:42;;;;;;;2.80;1.90;;;;;;;22.77;39.12;100347.17;1638080;86;21246;-51
2021/05/13 13:23:51;;;;;;;3.25;2.10;;;;;;;22.85;39.17;100339.19;1624650;88;21287;-49
2021/05/13 13:27:01;;;;;;;2.92;2.00;;;;;;;23.05;39.75;100337.24;1626733;87;21232;-50
2021/05/13 13:30:20;;;;;;;2.98;2.00;;;;;;;23.40;38.93;100327.97;1624190;88;21817;-50
2021/05/13 13:33:28;;;;;;;5.08;2.27;;;;;;;23.75;39.07;100332.58;1627878;88;21951;-50
2021/05/13 13:36:43;;;;;;;3.77;2.60;;;;;;;24.00;36.91;100330.08;1626806;88;21239;-50
2021/05/13 13:39:46;;;;;;;;;;;;;;;24.15;37.06;100327.41;1617912;86;21847;-51
2021/05/13 13:42:54;;;;;;;5.90;2.85;;;;;;;24.27;36.55;100328.09;1617034;86;20247;-50
2021/05/13 13:46:02;;;;;;;6.33;2.75;;;;;;;24.13;35.46;100321.26;1587957;90;21243;-49
2021/05/13 13:49:08;;;;;;;3.47;2.20;;;;;;;24.12;35.26;100320.12;1623589;87;21395;-51
2021/05/13 13:52:13;;;;;;;4.92;2.25;;;;;;;24.17;35.15;100314.01;1626255;88;21324;-49
2021/05/13 13:55:20;;;;;;;4.78;2.22;;;;;;;24.15;36.12;100319.59;1625127;87;21566;-51
2021/05/13 13:58:25;;;;;;;4.53;2.37;;;;;;;24.47;36.16;100319.00;1624529;88;21271;-51
2021/05/13 14:01:33;;;;;;;6.22;2.80;;;;;;;24.87;35.47;100314.59;1611791;86;21224;-51
2021/05/13 14:04:42;;;;;;;8.25;2.67;;;;;;;24.61;35.03;100314.08;1627881;87;21204;-55
2021/05/13 14:07:47;;;;;;;3.98;2.60;;;;;;;24.19;36.27;100306.75;1592473;88;21228;-55
2021/05/13 14:10:53;;;;;;;5.17;2.83;;;;;;;23.98;35.83;100307.11;1602295;88;21740;-60
2021/05/13 14:14:03;;;;;;;4.47;2.05;;;;;;;23.78;35.74;100309.69;1640602;87;21245;-60
2021/05/13 14:17:08;;;;;;;5.58;2.40;;;;;;;23.63;36.02;100311.48;1626029;87;21863;-59
2021/05/13 14:20:19;;;;;;;7.62;2.77;;;;;;;23.59;35.66;100305.56;1637256;87;21285;-59
2021/05/13 14:23:24;;;;;;;5.75;2.75;;;;;;;23.74;35.94;100310.48;1625444;88;21300;-60
2021/05/13 14:26:29;;;;;;;3.65;2.60;;;;;;;23.76;34.99;100307.70;1624290;88;21192;-60
2021/05/13 14:29:34;;;;;;;4.20;2.62;;;;;;;23.50;35.25;100301.52;1623623;88;21220;-61
2021/05/13 14:32:44;;;;;;;3.50;2.55;;;;;;;23.18;35.96;100293.58;1624997;88;21369;-59
2021/05/13 14:35:49;;;;;;;6.58;2.85;;;;;;;22.96;36.30;100301.10;1621383;87;21213;-59
2021/05/13 14:38:54;;;;;;;4.85;3.58;;;;;;;23.06;36.78;100304.87;1626786;88;21874;-59
2021/05/13 14:42:02;;;;;;;4.62;3.22;;;;;;;23.36;36.75;100302.49;1638181;87;21309;-59
2021/05/13 14:45:10;;;;;;;8.88;3.85;;;;;;;23.56;37.19;100295.73;1625970;88;21729;-58